TimeCST,TemperatureF,Dew PointF,Humidity,Sea Level PressureIn,VisibilityMPH,Wind Direction,Wind SpeedMPH,Gust SpeedMPH,PrecipitationIn,Events,Conditions,WindDirDegrees,DateUTC
12:15 AM,17.4,6.6,63,30.62,10.0,Calm,Calm,-,N/A,,Clear,0,2014-01-07 06:15:00
12:35 AM,19.2,4.6,53,30.62,10.0,Calm,Calm,-,N/A,,Clear,0,2014-01-07 06:35:00
12:55 AM,19.4,4.5,52,30.62,10.0,Calm,Calm,-,N/A,,Clear,0,2014-01-07 06:55:00
1:15 AM,19.4,3.0,49,30.61,10.0,Calm,Calm,-,N/A,,Clear,0,2014-01-07 07:15:00
1:35 AM,19.0,2.7,49,30.62,10.0,Calm,Calm,-,N/A,,Clear,0,2014-01-07 07:35:00
1:55 AM,18.7,2.3,49,30.61,10.0,Calm,Calm,-,N/A,,Clear,0,2014-01-07 07:55:00
2:15 AM,18.5,1.8,48,30.62,10.0,Calm,Calm,-,N/A,,Clear,0,2014-01-07 08:15:00
2:35 AM,18.3,1.4,48,30.62,10.0,Calm,Calm,-,N/A,,Clear,0,2014-01-07 08:35:00
2:55 AM,18.0,1.6,49,30.63,10.0,Calm,Calm,-,N/A,,Clear,0,2014-01-07 08:55:00
3:15 AM,16.0,7.5,69,30.63,10.0,Calm,Calm,-,N/A,,Clear,0,2014-01-07 09:15:00
3:35 AM,14.7,5.5,67,30.63,10.0,Calm,Calm,-,N/A,,Clear,0,2014-01-07 09:35:00
3:55 AM,14.7,7.7,74,30.63,10.0,Calm,Calm,-,N/A,,Clear,0,2014-01-07 09:55:00
4:15 AM,14.0,7.5,75,30.63,10.0,Calm,Calm,-,N/A,,Clear,0,2014-01-07 10:15:00
4:35 AM,14.0,6.4,72,30.63,10.0,Calm,Calm,-,N/A,,Clear,0,2014-01-07 10:35:00
4:55 AM,13.6,8.2,79,30.63,10.0,Calm,Calm,-,N/A,,Clear,0,2014-01-07 10:55:00
5:15 AM,13.1,7.0,77,30.63,10.0,Calm,Calm,-,N/A,,Clear,0,2014-01-07 11:15:00
5:35 AM,12.9,6.8,77,30.64,10.0,Calm,Calm,-,N/A,,Clear,0,2014-01-07 11:35:00
5:55 AM,13.5,8.2,80,30.64,10.0,Calm,Calm,-,N/A,,Clear,0,2014-01-07 11:55:00
6:15 AM,12.9,7.3,78,30.65,10.0,Calm,Calm,-,N/A,,Clear,0,2014-01-07 12:15:00
6:35 AM,12.7,7.5,80,30.65,10.0,Calm,Calm,-,N/A,,Clear,0,2014-01-07 12:35:00
6:55 AM,12.7,6.4,76,30.65,10.0,Calm,Calm,-,N/A,,Clear,0,2014-01-07 12:55:00
7:15 AM,13.3,8.4,81,30.65,10.0,Calm,Calm,-,N/A,,Clear,0,2014-01-07 13:15:00
7:35 AM,14.0,8.8,80,30.66,10.0,Calm,Calm,-,N/A,,Clear,0,2014-01-07 13:35:00
7:55 AM,16.0,10.8,80,30.66,10.0,Calm,Calm,-,N/A,,Clear,0,2014-01-07 13:55:00
8:15 AM,18.5,10.0,70,30.66,10.0,Calm,Calm,-,N/A,,Clear,0,2014-01-07 14:15:00
8:35 AM,20.7,9.7,63,30.66,10.0,Calm,Calm,-,N/A,,Clear,0,2014-01-07 14:35:00
8:55 AM,22.1,7.7,54,30.66,10.0,Calm,Calm,-,N/A,,Clear,0,2014-01-07 14:55:00
9:15 AM,22.1,6.8,52,30.67,10.0,Calm,Calm,-,N/A,,Clear,0,2014-01-07 15:15:00
9:35 AM,23.2,3.6,43,30.68,10.0,Calm,Calm,-,N/A,,Clear,0,2014-01-07 15:35:00
9:55 AM,23.9,3.9,42,30.68,10.0,Calm,Calm,-,N/A,,Clear,0,2014-01-07 15:55:00
10:15 AM,25.9,3.9,39,30.68,10.0,Calm,Calm,-,N/A,,Clear,0,2014-01-07 16:15:00
10:35 AM,27.7,2.8,35,30.67,10.0,Calm,Calm,-,N/A,,Clear,0,2014-01-07 16:35:00
10:55 AM,28.9,2.3,32,30.65,10.0,Calm,Calm,-,N/A,,Clear,0,2014-01-07 16:55:00
11:15 AM,30.0,1.0,29,30.64,10.0,Calm,Calm,-,N/A,,Clear,0,2014-01-07 17:15:00
11:35 AM,31.8,1.0,27,30.63,10.0,Calm,Calm,-,N/A,,Clear,0,2014-01-07 17:35:00
11:55 AM,32.5,-1.1,24,30.61,10.0,Calm,Calm,-,N/A,,Clear,0,2014-01-07 17:55:00
12:15 PM,33.3,-0.8,23,30.59,10.0,Calm,Calm,-,N/A,,Clear,0,2014-01-07 18:15:00
12:35 PM,34.9,0.3,23,30.58,10.0,Calm,Calm,-,N/A,,Clear,0,2014-01-07 18:35:00
12:55 PM,35.8,-0.2,22,30.56,10.0,Calm,Calm,-,N/A,,Clear,0,2014-01-07 18:55:00
1:15 PM,35.8,1.2,23,30.55,10.0,Calm,Calm,-,N/A,,Clear,0,2014-01-07 19:15:00
1:35 PM,37.6,2.1,23,30.55,10.0,Calm,Calm,-,N/A,,Clear,0,2014-01-07 19:35:00
1:55 PM,38.3,2.1,22,30.53,10.0,Calm,Calm,-,N/A,,Clear,0,2014-01-07 19:55:00
2:15 PM,38.3,1.9,22,30.53,10.0,Calm,Calm,-,N/A,,Clear,0,2014-01-07 20:15:00
2:35 PM,38.8,3.7,23,30.53,10.0,Calm,Calm,-,N/A,,Clear,0,2014-01-07 20:35:00
2:55 PM,38.8,4.3,24,30.52,10.0,Calm,Calm,-,N/A,,Clear,0,2014-01-07 20:55:00
3:15 PM,38.7,5.7,25,30.52,10.0,SSE,3.5,-,N/A,,Clear,150,2014-01-07 21:15:00
3:35 PM,38.5,5.0,25,30.51,10.0,South,6.9,-,N/A,,Clear,180,2014-01-07 21:35:00
3:55 PM,38.3,6.3,26,30.51,10.0,Calm,Calm,-,N/A,,Clear,0,2014-01-07 21:55:00
4:15 PM,37.6,6.4,27,30.51,10.0,Calm,Calm,-,N/A,,Clear,0,2014-01-07 22:15:00
4:35 PM,37.2,6.8,28,30.51,10.0,Calm,Calm,-,N/A,,Clear,0,2014-01-07 22:35:00
4:55 PM,36.5,7.2,30,30.51,10.0,Calm,Calm,-,N/A,,Clear,0,2014-01-07 22:55:00
5:15 PM,34.7,7.3,32,30.51,10.0,Calm,Calm,-,N/A,,Clear,0,2014-01-07 23:15:00
5:35 PM,33.8,8.1,34,30.50,10.0,Calm,Calm,-,N/A,,Clear,0,2014-01-07 23:35:00
5:55 PM,32.9,8.4,36,30.50,10.0,Calm,Calm,-,N/A,,Clear,0,2014-01-07 23:55:00
6:15 PM,32.5,8.1,36,30.49,10.0,Calm,Calm,-,N/A,,Clear,0,2014-01-08 00:15:00
6:35 PM,32.0,8.8,38,30.50,10.0,Calm,Calm,-,N/A,,Clear,0,2014-01-08 00:35:00
6:55 PM,32.0,9.9,40,30.50,10.0,Calm,Calm,-,N/A,,Clear,0,2014-01-08 00:55:00
7:15 PM,31.8,10.4,41,30.49,10.0,Calm,Calm,-,N/A,,Clear,0,2014-01-08 01:15:00
7:35 PM,31.6,11.7,44,30.50,10.0,Calm,Calm,-,N/A,,Clear,0,2014-01-08 01:35:00
7:55 PM,31.3,12.4,46,30.50,10.0,Calm,Calm,-,N/A,,Clear,0,2014-01-08 01:55:00
8:15 PM,31.1,12.2,46,30.50,10.0,Calm,Calm,-,N/A,,Clear,0,2014-01-08 02:15:00
8:35 PM,31.1,12.6,46,30.49,10.0,Calm,Calm,-,N/A,,Clear,0,2014-01-08 02:35:00
8:55 PM,30.6,13.1,48,30.49,10.0,Calm,Calm,-,N/A,,Clear,0,2014-01-08 02:55:00
9:15 PM,30.4,13.1,49,30.49,10.0,Calm,Calm,-,N/A,,Clear,0,2014-01-08 03:15:00
9:35 PM,30.4,12.6,48,30.50,10.0,Calm,Calm,-,N/A,,Clear,0,2014-01-08 03:35:00
9:55 PM,29.8,12.4,48,30.49,10.0,Calm,Calm,-,N/A,,Clear,0,2014-01-08 03:55:00
10:15 PM,28.8,13.1,52,30.49,10.0,Calm,Calm,-,N/A,,Clear,0,2014-01-08 04:15:00
10:35 PM,28.6,13.1,52,30.49,10.0,Calm,Calm,-,N/A,,Clear,0,2014-01-08 04:35:00
10:55 PM,28.6,13.6,54,30.49,10.0,Calm,Calm,-,N/A,,Clear,0,2014-01-08 04:55:00
11:15 PM,28.0,14.0,56,30.48,10.0,Calm,Calm,-,N/A,,Clear,0,2014-01-08 05:15:00
11:35 PM,28.2,13.8,55,30.47,10.0,Calm,Calm,-,N/A,,Clear,0,2014-01-08 05:35:00
11:55 PM,27.9,14.0,56,30.48,10.0,Calm,Calm,-,N/A,,Clear,0,2014-01-08 05:55:00